Dades meteomassalio
Diari Summary for Febrer 1, 2018 Units:  English    Metric   Both
« Previous Day
Next Day »
Diari Semanal Mensual Anual Personalitzat
  Maxima: Minima: Mijana:
Temperatura: TemperatureC °F -2.2 °F 3.6 °F
Rosada: DewpointC °F -3.3 °F 0.8 °F
Humitat: Humidity % 69 % 82 %
Velocitat del vent: WindSpeedKMH mph 0.0 mph 14.6 mph
Racha vent: WindSpeedGustKMH mph - -
Vent:- - NW
Pressio: PressurehPa in 1010.4 in -
Pluja: 0.3 in    
Historical Graphs
 
 
Tabular Data for Febrer 1, 2018
Time Temperature Dew Point Pressure Wind Wind Speed Wind Gust Humidity Rainfall Rate (Hourly) solar Conditions
TemperatureC °F DewpointC °F PressurehPa in Calm     Humidity % HourlyPrecipMM in SolarRadiationWatts/m^2 W/m2 Conditions
00:04 0.0 °F -1.2 °F 1020.9 in Calm     92 % 0.0 in 0.0 W/m2 RA
00:09 0.0 °F -1.2 °F 1020.9 in Calm     92 % 0.0 in 0.0 W/m2 CLR
00:14 0.6 °F -0.6 °F 1020.9 in Calm     92 % 0.0 in 0.0 W/m2 CLR
00:19 0.0 °F -1.2 °F 1020.5 in Calm     92 % 0.0 in 0.0 W/m2 CLR
00:24 0.6 °F -0.6 °F 1020.9 in Calm     92 % 0.0 in 0.0 W/m2 CLR
00:29 0.6 °F -0.6 °F 1020.5 in Calm     92 % 0.0 in 0.0 W/m2 CLR
00:34 0.0 °F -1.2 °F 1020.5 in Calm     92 % 0.0 in 0.0 W/m2 CLR
00:39 0.0 °F -1.2 °F 1020.5 in Calm     92 % 0.0 in 0.0 W/m2 CLR
00:44 0.0 °F -1.2 °F 1020.5 in Calm     92 % 0.0 in 0.0 W/m2 CLR
00:49 0.0 °F -1.2 °F 1020.5 in Calm     92 % 0.0 in 0.0 W/m2 CLR
00:54 0.0 °F -1.2 °F 1020.2 in Calm     92 % 0.0 in 0.0 W/m2 CLR
00:59 0.0 °F -1.2 °F 1020.2 in Calm     92 % 0.0 in 0.0 W/m2 CLR
01:04 -0.6 °F -1.7 °F 1020.2 in Calm     92 % 0.0 in 0.0 W/m2 CLR
01:09 -0.6 °F -1.7 °F 1020.2 in Calm     92 % 0.0 in 0.0 W/m2 CLR
01:14 -0.6 °F -1.7 °F 1020.2 in WNW 3.7 mph   92 % 0.0 in 0.0 W/m2 CLR
01:19 -0.6 °F -1.7 °F 1020.2 in Calm     92 % 0.0 in 0.0 W/m2 CLR
01:24 -0.6 °F -1.7 °F 1019.9 in Calm     92 % 0.0 in 0.0 W/m2 CLR
01:29 -0.6 °F -1.7 °F 1019.9 in Calm     92 % 0.0 in 0.0 W/m2 CLR
01:34 -0.6 °F -1.7 °F 1019.9 in Calm     92 % 0.0 in 0.0 W/m2 CLR
01:39 -1.1 °F -2.2 °F 1019.9 in Calm     92 % 0.0 in 0.0 W/m2 CLR
01:44 -0.6 °F -1.7 °F 1019.9 in Calm     92 % 0.0 in 0.0 W/m2 CLR
01:49 -1.1 °F -2.2 °F 1019.9 in Calm     92 % 0.0 in 0.0 W/m2 CLR
01:54 -1.1 °F -2.2 °F 1019.9 in Calm     92 % 0.0 in 0.0 W/m2 CLR
01:59 -0.6 °F -1.7 °F 1019.9 in Calm     92 % 0.0 in 0.0 W/m2 CLR
02:04 -1.1 °F -2.2 °F 1019.5 in Calm     92 % 0.0 in 0.0 W/m2 CLR
02:09 -1.1 °F -2.2 °F 1019.5 in Calm     92 % 0.0 in 0.0 W/m2 CLR
02:14 -1.1 °F -2.2 °F 1019.5 in Calm     92 % 0.0 in 0.0 W/m2 CLR
02:19 -1.1 °F -2.1 °F 1019.5 in Calm     93 % 0.0 in 0.0 W/m2 CLR
02:24 -1.1 °F -2.1 °F 1019.5 in Calm     93 % 0.3 in 0.0 W/m2 RA
02:29 -1.1 °F -2.1 °F 1019.5 in Calm     93 % 0.3 in 0.0 W/m2
02:34 -1.7 °F -2.7 °F 1019.5 in Calm     93 % 0.3 in 0.0 W/m2 CLR
02:39 -1.7 °F -2.8 °F 1019.5 in Calm     92 % 0.3 in 0.0 W/m2 CLR
02:44 -1.7 °F -2.8 °F 1019.2 in Calm     92 % 0.3 in 0.0 W/m2 CLR
02:49 -1.7 °F -2.8 °F 1019.2 in Calm     92 % 0.3 in 0.0 W/m2 CLR
02:55 -1.7 °F -2.7 °F 1019.2 in Calm     93 % 0.3 in 0.0 W/m2 CLR
03:00 -1.7 °F -2.7 °F 1019.2 in Calm     93 % 0.3 in 0.0 W/m2 CLR
03:05 -2.2 °F -3.2 °F 1019.2 in Calm     93 % 0.3 in 0.0 W/m2 CLR
03:10 -2.2 °F -3.2 °F 1019.2 in Calm     93 % 0.3 in 0.0 W/m2 CLR
03:15 -1.7 °F -2.8 °F 1019.2 in Calm     92 % 0.3 in 0.0 W/m2 CLR
03:20 -1.7 °F -2.8 °F 1019.2 in Calm     92 % 0.3 in 0.0 W/m2 CLR
03:25 -1.7 °F -2.8 °F 1018.8 in Calm     92 % 0.0 in 0.0 W/m2 CLR
03:30 -1.7 °F -2.8 °F 1018.8 in Calm     92 % 0.0 in 0.0 W/m2 CLR
03:35 -1.7 °F -2.7 °F 1018.8 in Calm     93 % 0.0 in 0.0 W/m2 CLR
03:40 -1.7 °F -2.7 °F 1019.2 in Calm     93 % 0.0 in 0.0 W/m2 CLR
03:45 -1.7 °F -2.7 °F 1018.8 in Calm     93 % 0.0 in 0.0 W/m2 CLR
03:50 -1.7 °F -2.7 °F 1018.8 in Calm     93 % 0.0 in 0.0 W/m2 CLR
03:55 -1.7 °F -2.8 °F 1018.8 in Calm     92 % 0.0 in 0.0 W/m2 CLR
04:00 -2.2 °F -3.2 °F 1018.5 in Calm     93 % 0.0 in 0.0 W/m2 CLR
04:05 -2.2 °F -3.2 °F 1018.5 in Calm     93 % 0.0 in 0.0 W/m2 CLR
04:10 -2.2 °F -3.2 °F 1018.5 in Calm     93 % 0.0 in 0.0 W/m2 CLR
04:15 -2.2 °F -3.2 °F 1018.2 in Calm     93 % 0.0 in 0.0 W/m2 CLR
04:20 -2.2 °F -3.2 °F 1018.2 in Calm     93 % 0.0 in 0.0 W/m2 CLR
04:25 -2.2 °F -3.2 °F 1018.2 in Calm     93 % 0.0 in 0.0 W/m2 CLR
04:30 -2.2 °F -3.3 °F 1017.8 in Calm     92 % 0.0 in 0.0 W/m2 CLR
04:35 -2.2 °F -3.2 °F 1018.2 in Calm     93 % 0.0 in 0.0 W/m2 CLR
04:40 -2.2 °F -3.2 °F 1017.8 in Calm     93 % 0.0 in 0.0 W/m2 CLR
04:45 -2.2 °F -3.3 °F 1017.8 in Calm     92 % 0.0 in 0.0 W/m2 CLR
04:50 -2.2 °F -3.2 °F 1017.8 in Calm     93 % 0.0 in 0.0 W/m2 CLR
04:55 -2.2 °F -3.2 °F 1017.8 in Calm     93 % 0.0 in 0.0 W/m2 CLR
05:00 -2.2 °F -3.2 °F 1017.8 in Calm     93 % 0.0 in 0.0 W/m2 CLR
05:05 -2.2 °F -3.2 °F 1017.5 in Calm     93 % 0.0 in 0.0 W/m2 CLR
05:10 -2.2 °F -3.2 °F 1017.5 in Calm     93 % 0.0 in 0.0 W/m2 CLR
05:15 -2.2 °F -3.2 °F 1017.5 in Calm     93 % 0.0 in 0.0 W/m2 CLR
05:20 -1.7 °F -2.7 °F 1017.5 in Calm     93 % 0.0 in 0.0 W/m2 CLR
05:25 -1.7 °F -2.7 °F 1017.5 in Calm     93 % 0.0 in 0.0 W/m2 CLR
05:30 -1.7 °F -2.8 °F 1017.5 in Calm     92 % 0.0 in 0.0 W/m2 CLR
05:35 -1.7 °F -2.7 °F 1017.2 in Calm     93 % 0.0 in 0.0 W/m2 CLR
05:40 -1.7 °F -2.7 °F 1017.2 in Calm     93 % 0.0 in 0.0 W/m2 CLR
05:45 -1.7 °F -2.7 °F 1016.8 in Calm     93 % 0.0 in 0.0 W/m2 CLR
05:50 -1.7 °F -2.7 °F 1016.8 in Calm     93 % 0.0 in 0.0 W/m2 CLR
05:55 -1.7 °F -2.7 °F 1016.8 in Calm     93 % 0.0 in 0.0 W/m2 CLR
06:00 -1.7 °F -2.7 °F 1016.8 in Calm     93 % 0.0 in 0.0 W/m2 CLR
06:05 -1.7 °F -2.7 °F 1016.8 in Calm     93 % 0.0 in 0.0 W/m2 CLR
06:10 -1.7 °F -2.7 °F 1016.8 in Calm     93 % 0.0 in 0.0 W/m2 CLR
06:15 -1.1 °F -2.1 °F 1016.8 in Calm     93 % 0.0 in 0.0 W/m2 CLR
06:20 -1.1 °F -2.1 °F 1016.8 in Calm     93 % 0.0 in 0.0 W/m2 CLR
06:25 -1.1 °F -2.1 °F 1016.5 in Calm     93 % 0.0 in 0.0 W/m2 CLR
06:30 -1.1 °F -2.1 °F 1016.5 in Calm     93 % 0.0 in 0.0 W/m2 CLR
06:35 -1.1 °F -2.1 °F 1016.5 in Calm     93 % 0.0 in 0.0 W/m2 CLR
06:40 -1.1 °F -2.1 °F 1016.5 in Calm     93 % 0.0 in 0.0 W/m2 CLR
06:45 -1.1 °F -2.1 °F 1016.5 in Calm     93 % 0.0 in 0.0 W/m2 CLR
06:50 -1.1 °F -2.1 °F 1016.5 in Calm     93 % 0.0 in 0.0 W/m2 CLR
06:55 -1.1 °F -2.1 °F 1016.5 in Calm     93 % 0.0 in 0.0 W/m2 CLR
07:00 -1.1 °F -2.1 °F 1016.5 in Calm     93 % 0.0 in 0.0 W/m2 CLR
07:05 -1.1 °F -2.1 °F 1016.5 in Calm     93 % 0.0 in 0.0 W/m2 CLR
07:10 -1.1 °F -2.1 °F 1016.5 in Calm     93 % 0.0 in 0.0 W/m2 CLR
07:15 -1.1 °F -2.1 °F 1016.5 in Calm     93 % 0.0 in 0.0 W/m2 CLR
07:20 -1.1 °F -2.1 °F 1016.5 in Calm     93 % 0.0 in 0.0 W/m2 CLR
07:25 -1.1 °F -2.1 °F 1016.5 in Calm     93 % 0.0 in 0.0 W/m2 CLR
07:30 -1.1 °F -2.1 °F 1016.5 in Calm     93 % 0.0 in 0.0 W/m2 CLR
07:35 -1.1 °F -2.1 °F 1016.5 in Calm     93 % 0.0 in 0.0 W/m2 CLR
07:40 -1.1 °F -2.1 °F 1016.5 in Calm     93 % 0.0 in 0.0 W/m2 CLR
07:45 -1.1 °F -2.1 °F 1016.5 in Calm     93 % 0.0 in 0.0 W/m2 CLR
07:50 -1.1 °F -2.1 °F 1016.5 in Calm     93 % 0.0 in 0.0 W/m2 CLR
07:55 -1.1 °F -2.1 °F 1016.1 in Calm     93 % 0.0 in 0.0 W/m2 CLR
08:01 -1.1 °F -2.1 °F 1016.1 in Calm     93 % 0.0 in 0.0 W/m2 OVC
08:06 -1.1 °F -2.1 °F 1016.1 in Calm     93 % 0.0 in 0.0 W/m2 OVC
08:11 -1.1 °F -2.1 °F 1016.1 in Calm     93 % 0.0 in 0.0 W/m2 OVC
08:16 -0.6 °F -1.6 °F 1016.1 in Calm     93 % 0.0 in 5.0 W/m2 OVC
08:21 -0.6 °F -1.6 °F 1015.8 in Calm     93 % 0.0 in 0.0 W/m2 OVC
08:26 -0.6 °F -1.6 °F 1015.8 in Calm     93 % 0.0 in 0.0 W/m2 OVC
08:31 -0.6 °F -1.6 °F 1015.8 in Calm     93 % 0.0 in 5.0 W/m2 OVC
08:36 -0.6 °F -1.6 °F 1015.8 in Calm     93 % 0.0 in 5.0 W/m2 OVC
08:41 0.0 °F -1.0 °F 1015.5 in WSW 1.9 mph 1.9 mph 93 % 0.0 in 7.0 W/m2 BKN
08:46 0.0 °F -1.0 °F 1015.5 in Calm     93 % 0.0 in 11.0 W/m2 BKN
08:51 0.0 °F -1.0 °F 1015.5 in Calm     93 % 0.0 in 16.0 W/m2 BKN
08:56 0.0 °F -1.0 °F 1015.5 in Calm     93 % 0.0 in 26.0 W/m2 BKN
09:01 0.0 °F -1.0 °F 1015.5 in Calm     93 % 0.0 in 42.0 W/m2 BKN
09:06 0.0 °F -1.0 °F 1015.5 in Calm     93 % 0.0 in 51.0 W/m2 SCT
09:11 0.0 °F -1.0 °F 1015.1 in Calm     93 % 0.0 in 51.0 W/m2 SCT
09:16 0.6 °F -0.4 °F 1015.1 in Calm     93 % 0.0 in 49.0 W/m2 SCT
09:21 0.6 °F -0.4 °F 1015.1 in Calm     93 % 0.0 in 47.0 W/m2 SCT
09:26 0.6 °F -0.4 °F 1015.1 in Calm     93 % 0.0 in 46.0 W/m2 SCT
09:31 0.6 °F -0.6 °F 1015.1 in West 4.8 mph 4.8 mph 92 % 0.0 in 46.0 W/m2 SCT
09:36 0.6 °F -0.4 °F 1015.1 in West 9.7 mph 9.7 mph 93 % 0.0 in 47.0 W/m2 SCT
09:41 1.1 °F 0.1 °F 1015.1 in West 9.3 mph 9.3 mph 93 % 0.0 in 49.0 W/m2 SCT
09:46 1.1 °F -0.2 °F 1015.1 in West 6.4 mph 6.4 mph 91 % 0.0 in 58.0 W/m2 SCT
09:51 1.1 °F -0.5 °F 1015.1 in WSW 4.8 mph 4.8 mph 89 % 0.0 in 65.0 W/m2 SCT
09:56 1.7 °F 0.1 °F 1015.1 in West 7.4 mph 7.4 mph 89 % 0.0 in 69.0 W/m2 SCT
10:01 1.7 °F -0.1 °F 1015.1 in WNW 5.6 mph   88 % 0.0 in 76.0 W/m2 FEW
10:06 1.7 °F -0.3 °F 1015.1 in WNW 5.6 mph   87 % 0.0 in 84.0 W/m2 FEW
10:11 1.7 °F -0.3 °F 1015.1 in Calm     87 % 0.0 in 100.0 W/m2 CLR
10:17 2.2 °F 0.4 °F 1014.8 in NW 5.6 mph 5.6 mph 88 % 0.0 in 105.0 W/m2 CLR
10:22 2.2 °F 0.3 °F 1014.8 in WNW 7.4 mph 7.4 mph 87 % 0.0 in 100.0 W/m2 CLR
10:27 2.8 °F 0.3 °F 1015.1 in NNW 6.4 mph 6.4 mph 84 % 0.0 in 98.0 W/m2 CLR
10:32 2.8 °F 0.2 °F 1015.1 in NW 13.0 mph 13.0 mph 83 % 0.0 in 97.0 W/m2 CLR
10:37 2.8 °F -0.5 °F 1014.8 in NW 18.5 mph 18.5 mph 79 % 0.0 in 93.0 W/m2 CLR
10:42 3.3 °F -0.5 °F 1014.8 in NW 13.0 mph 13.0 mph 76 % 0.0 in 98.0 W/m2 CLR
10:47 3.3 °F -0.7 °F 1014.8 in NW 14.8 mph 14.8 mph 75 % 0.0 in 107.0 W/m2 CLR
10:52 3.3 °F -0.9 °F 1014.8 in NW 14.8 mph 14.8 mph 74 % 0.0 in 113.0 W/m2 CLR
10:57 3.9 °F -0.3 °F 1014.8 in WNW 14.8 mph 14.8 mph 74 % 0.0 in 118.0 W/m2 CLR
11:02 4.4 °F 0.0 °F 1014.8 in NW 18.5 mph 18.5 mph 73 % 0.0 in 130.0 W/m2 CLR
11:07 5.0 °F 0.6 °F 1014.4 in WNW 20.4 mph 20.4 mph 73 % 0.0 in 128.0 W/m2 CLR
11:12 6.7 °F 2.2 °F 1014.4 in NW 16.7 mph 16.7 mph 73 % 0.0 in 132.0 W/m2 CLR
11:17 7.8 °F 3.4 °F 1014.8 in NW 25.9 mph 25.9 mph 74 % 0.0 in 146.0 W/m2 CLR
11:22 8.3 °F 3.9 °F 1014.8 in NW 20.9 mph 20.9 mph 74 % 0.0 in 171.0 W/m2 CLR
11:27 8.3 °F 4.2 °F 1014.8 in NW 27.8 mph 27.8 mph 75 % 0.0 in 181.0 W/m2 CLR
11:32 8.9 °F 4.9 °F 1014.4 in NW 24.1 mph 24.1 mph 76 % 0.0 in 172.0 W/m2 CLR
11:37 8.9 °F 5.1 °F 1014.4 in NW 29.6 mph 29.6 mph 77 % 0.0 in 165.0 W/m2 CLR
11:42 8.9 °F 5.1 °F 1014.4 in NW 13.0 mph 13.0 mph 77 % 0.0 in 160.0 W/m2 CLR
11:47 8.9 °F 5.1 °F 1014.4 in NW 24.1 mph 24.1 mph 77 % 0.0 in 176.0 W/m2 CLR
11:52 8.9 °F 5.1 °F 1014.1 in NNW 25.9 mph 25.9 mph 77 % 0.0 in 176.0 W/m2 CLR
11:57 8.9 °F 5.1 °F 1014.1 in NNW 24.1 mph 24.1 mph 77 % 0.0 in 185.0 W/m2 CLR
12:02 9.4 °F 5.6 °F 1014.1 in NW 24.1 mph 24.1 mph 77 % 0.0 in 209.0 W/m2 CLR
12:07 9.4 °F 5.6 °F 1014.1 in NW 29.6 mph 29.6 mph 77 % 0.0 in 227.0 W/m2 CLR
12:12 9.4 °F 5.4 °F 1014.1 in NW 18.5 mph 18.5 mph 76 % 0.0 in 236.0 W/m2 CLR
12:17 9.4 °F 5.6 °F 1014.1 in NW 25.9 mph 25.9 mph 77 % 0.0 in 230.0 W/m2 CLR
12:22 10.0 °F 6.2 °F 1014.1 in NW 25.9 mph 25.9 mph 77 % 0.0 in 218.0 W/m2 CLR
12:27 10.0 °F 6.2 °F 1014.1 in NNW 25.9 mph 25.9 mph 77 % 0.0 in 193.0 W/m2 CLR
12:32 10.0 °F 5.9 °F 1013.8 in North 29.6 mph 29.6 mph 76 % 0.0 in 156.0 W/m2 CLR
12:37 9.4 °F 5.4 °F 1013.8 in NNW 29.6 mph 29.6 mph 76 % 0.0 in 156.0 W/m2 CLR
12:42 9.4 °F 5.4 °F 1013.8 in NW 31.5 mph 31.5 mph 76 % 0.0 in 135.0 W/m2 CLR
12:47 9.4 °F 5.6 °F 1013.4 in NW 24.1 mph 24.1 mph 77 % 0.0 in 118.0 W/m2 CLR
12:52 9.4 °F 5.4 °F 1013.4 in NNW 32.2 mph 32.2 mph 76 % 0.0 in 98.0 W/m2 CLR
12:57 9.4 °F 5.4 °F 1013.4 in NNW 27.8 mph 27.8 mph 76 % 0.0 in 97.0 W/m2 CLR
13:02 9.4 °F 5.4 °F 1013.4 in NNW 31.5 mph 31.5 mph 76 % 0.0 in 104.0 W/m2 CLR
13:07 9.4 °F 5.4 °F 1013.1 in NW 22.2 mph 22.2 mph 76 % 0.0 in 98.0 W/m2 CLR
13:12 9.4 °F 5.4 °F 1013.1 in NW 27.8 mph 27.8 mph 76 % 0.0 in 95.0 W/m2 CLR
13:17 9.4 °F 5.6 °F 1013.1 in NW 24.1 mph 24.1 mph 77 % 0.0 in 93.0 W/m2 CLR
13:22 8.9 °F 5.1 °F 1013.1 in WNW 24.1 mph 24.1 mph 77 % 0.0 in 88.0 W/m2 CLR
13:27 8.9 °F 5.1 °F 1012.8 in NNW 31.5 mph 31.5 mph 77 % 0.0 in 83.0 W/m2 CLR
13:32 8.9 °F 5.3 °F 1012.8 in NW 27.8 mph 27.8 mph 78 % 0.0 in 77.0 W/m2 FEW
13:37 8.9 °F 5.3 °F 1012.8 in WNW 25.9 mph 25.9 mph 78 % 0.0 in 74.0 W/m2 FEW
13:42 8.9 °F 5.4 °F 1012.8 in NNW 29.6 mph 29.6 mph 79 % 0.0 in 70.0 W/m2 FEW
13:47 8.9 °F 5.4 °F 1012.8 in NW 25.7 mph 25.7 mph 79 % 0.0 in 69.0 W/m2 FEW
13:52 8.9 °F 5.4 °F 1012.4 in NNW 25.9 mph 25.9 mph 79 % 0.0 in 74.0 W/m2 FEW
13:57 8.9 °F 5.4 °F 1012.4 in NNW 27.8 mph 27.8 mph 79 % 0.0 in 84.0 W/m2 FEW
14:02 8.9 °F 5.4 °F 1012.4 in NNW 24.1 mph 24.1 mph 79 % 0.0 in 93.0 W/m2 FEW
14:07 8.9 °F 5.4 °F 1012.4 in NW 24.1 mph 24.1 mph 79 % 0.0 in 100.0 W/m2 CLR
14:12 8.9 °F 5.4 °F 1012.1 in NW 31.5 mph 31.5 mph 79 % 0.0 in 105.0 W/m2 CLR
14:17 8.9 °F 5.4 °F 1012.1 in NW 20.4 mph 20.4 mph 79 % 0.0 in 100.0 W/m2 CLR
14:22 8.9 °F 5.3 °F 1012.1 in NW 31.5 mph 31.5 mph 78 % 0.0 in 91.0 W/m2 CLR
14:27 8.9 °F 5.3 °F 1012.1 in NW 22.5 mph 22.5 mph 78 % 0.0 in 86.0 W/m2 CLR
14:32 8.9 °F 5.1 °F 1011.7 in NNW 22.5 mph 22.5 mph 77 % 0.0 in 90.0 W/m2 CLR
14:37 8.9 °F 5.1 °F 1011.7 in NW 25.7 mph 25.7 mph 77 % 0.0 in 84.0 W/m2 CLR
14:42 8.9 °F 4.9 °F 1011.7 in NW 27.8 mph 27.8 mph 76 % 0.0 in 97.0 W/m2 CLR
14:47 8.9 °F 4.9 °F 1011.7 in NNW 25.9 mph 25.9 mph 76 % 0.0 in 95.0 W/m2 CLR
14:52 8.9 °F 4.9 °F 1011.7 in NW 24.1 mph 24.1 mph 76 % 0.0 in 84.0 W/m2 CLR
14:57 8.9 °F 4.7 °F 1011.7 in NW 22.5 mph 22.5 mph 75 % 0.0 in 93.0 W/m2 CLR
15:02 8.9 °F 4.7 °F 1011.4 in NW 18.5 mph 18.5 mph 75 % 0.0 in 83.0 W/m2 CLR
15:07 8.9 °F 4.5 °F 1011.4 in NNW 24.1 mph 24.1 mph 74 % 0.0 in 79.0 W/m2 FEW
15:12 8.9 °F 4.7 °F 1011.4 in NNW 18.5 mph 18.5 mph 75 % 0.0 in 76.0 W/m2 FEW
15:17 8.9 °F 4.7 °F 1011.4 in NNW 19.3 mph 19.3 mph 75 % 0.0 in 74.0 W/m2 FEW
15:22 8.9 °F 4.5 °F 1011.4 in NNW 20.4 mph 20.4 mph 74 % 0.0 in 58.0 W/m2 FEW
15:27 8.9 °F 4.7 °F 1011.4 in NW 18.5 mph 18.5 mph 75 % 0.0 in 69.0 W/m2 FEW
15:33 8.9 °F 4.3 °F 1011.1 in NW 20.4 mph 20.4 mph 73 % 0.0 in 69.0 W/m2 FEW
15:38 8.9 °F 4.3 °F 1011.1 in NW 25.9 mph 25.9 mph 73 % 0.0 in 70.0 W/m2 FEW
15:43 8.9 °F 4.3 °F 1011.1 in NW 24.1 mph 24.1 mph 73 % 0.0 in 84.0 W/m2 FEW
15:48 8.9 °F 4.3 °F 1011.1 in North 25.9 mph 25.9 mph 73 % 0.0 in 95.0 W/m2 FEW
15:53 8.9 °F 4.3 °F 1011.1 in NNW 20.4 mph 20.4 mph 73 % 0.0 in 88.0 W/m2 CLR
15:58 8.9 °F 4.3 °F 1011.1 in NNW 22.5 mph 22.5 mph 73 % 0.0 in 97.0 W/m2 CLR
16:03 8.9 °F 4.3 °F 1011.1 in NW 24.1 mph 24.1 mph 73 % 0.0 in 102.0 W/m2 CLR
16:08 8.9 °F 4.3 °F 1011.1 in North 29.6 mph 29.6 mph 73 % 0.0 in 102.0 W/m2 CLR
16:13 8.9 °F 4.3 °F 1010.7 in NNW 29.6 mph 29.6 mph 73 % 0.0 in 125.0 W/m2 CLR
16:18 8.9 °F 4.1 °F 1010.7 in NNW 24.1 mph 24.1 mph 72 % 0.0 in 121.0 W/m2 CLR
16:23 8.9 °F 4.1 °F 1010.7 in NW 25.9 mph 25.9 mph 72 % 0.0 in 109.0 W/m2 CLR
16:28 8.9 °F 3.9 °F 1010.4 in NW 33.3 mph 33.3 mph 71 % 0.0 in 98.0 W/m2 CLR
16:33 8.9 °F 3.9 °F 1010.4 in NW 25.9 mph 25.9 mph 71 % 0.0 in 93.0 W/m2 CLR
16:38 8.9 °F 3.9 °F 1010.4 in NW 31.5 mph 31.5 mph 71 % 0.0 in 69.0 W/m2 CLR
16:43 8.9 °F 3.9 °F 1010.4 in NNW 27.4 mph 27.4 mph 71 % 0.0 in 62.0 W/m2 FEW
16:48 8.9 °F 3.9 °F 1010.4 in NW 27.8 mph 27.8 mph 71 % 0.0 in 63.0 W/m2 SCT
16:53 8.3 °F 3.2 °F 1010.4 in NW 22.2 mph 22.2 mph 70 % 0.0 in 62.0 W/m2 SCT
16:58 8.3 °F 3.2 °F 1010.4 in NNW 31.5 mph 31.5 mph 70 % 0.0 in 60.0 W/m2 SCT
17:03 8.3 °F 3.4 °F 1010.4 in NNW 24.1 mph 24.1 mph 71 % 0.0 in 58.0 W/m2 SCT
17:08 8.3 °F 3.2 °F 1010.4 in NW 27.4 mph 27.4 mph 70 % 0.0 in 54.0 W/m2 SCT
17:13 8.3 °F 3.2 °F 1010.4 in NW 33.3 mph 33.3 mph 70 % 0.0 in 46.0 W/m2 SCT
17:18 8.3 °F 3.0 °F 1010.4 in NW 31.5 mph 31.5 mph 69 % 0.0 in 42.0 W/m2 BKN
17:23 8.3 °F 3.2 °F 1010.4 in NNW 25.9 mph 25.9 mph 70 % 0.0 in 39.0 W/m2 BKN
17:28 8.3 °F 3.2 °F 1010.4 in NNW 31.5 mph 31.5 mph 70 % 0.0 in 35.0 W/m2 BKN
17:33 8.3 °F 3.2 °F 1010.4 in NW 37.0 mph 37.0 mph 70 % 0.0 in 30.0 W/m2 BKN
17:38 8.3 °F 3.0 °F 1010.4 in NW 31.5 mph 31.5 mph 69 % 0.0 in 25.0 W/m2 BKN
17:43 8.3 °F 3.2 °F 1010.4 in NNW 27.4 mph 27.4 mph 70 % 0.0 in 19.0 W/m2 BKN
17:48 8.3 °F 3.2 °F 1010.4 in NW 25.9 mph 25.9 mph 70 % 0.0 in 16.0 W/m2 BKN
17:53 8.3 °F 3.2 °F 1010.4 in NW 27.8 mph 27.8 mph 70 % 0.0 in 11.0 W/m2 BKN
17:58 7.8 °F 2.7 °F 1010.4 in NW 31.5 mph 31.5 mph 70 % 0.0 in 7.0 W/m2 BKN
18:03 7.8 °F 2.8 °F 1010.4 in NNW 35.2 mph 35.2 mph 71 % 0.0 in 5.0 W/m2 OVC
18:08 7.8 °F 2.8 °F 1010.4 in NNW 25.9 mph 25.9 mph 71 % 0.0 in 0.0 W/m2 OVC
18:13 7.8 °F 2.7 °F 1010.4 in NW 29.6 mph 29.6 mph 70 % 0.0 in 0.0 W/m2 OVC
18:18 7.8 °F 2.8 °F 1010.4 in NNW 24.1 mph 24.1 mph 71 % 0.0 in 0.0 W/m2 OVC
18:23 7.8 °F 2.8 °F 1010.4 in NW 22.2 mph 22.2 mph 71 % 0.0 in 0.0 W/m2 OVC
18:28 7.8 °F 2.7 °F 1010.4 in NW 25.9 mph 25.9 mph 70 % 0.0 in 0.0 W/m2 CLR
18:33 7.8 °F 2.8 °F 1010.4 in NNW 31.5 mph 31.5 mph 71 % 0.0 in 0.0 W/m2 CLR
18:38 7.2 °F 2.3 °F 1010.4 in NNW 24.1 mph 24.1 mph 71 % 0.0 in 0.0 W/m2 CLR
18:43 7.2 °F 2.5 °F 1010.4 in NW 18.5 mph 18.5 mph 72 % 0.0 in 0.0 W/m2 CLR
18:48 7.2 °F 2.7 °F 1010.4 in NW 25.9 mph 25.9 mph 73 % 0.0 in 0.0 W/m2 CLR
18:53 7.2 °F 2.7 °F 1010.4 in NNW 37.0 mph 37.0 mph 73 % 0.0 in 0.0 W/m2 CLR
18:58 6.7 °F 2.2 °F 1010.7 in NW 31.5 mph 31.5 mph 73 % 0.0 in 0.0 W/m2 CLR
19:03 6.7 °F 2.2 °F 1010.7 in NW 18.5 mph 18.5 mph 73 % 0.0 in 0.0 W/m2 CLR
19:08 6.7 °F 2.3 °F 1010.7 in NW 31.5 mph 31.5 mph 74 % 0.0 in 0.0 W/m2 CLR
19:13 6.1 °F 1.8 °F 1010.7 in NW 24.1 mph 24.1 mph 74 % 0.0 in 0.0 W/m2 CLR
19:18 6.1 °F 1.8 °F 1010.7 in WNW 27.8 mph 27.8 mph 74 % 0.0 in 0.0 W/m2 CLR
19:23 6.1 °F 1.8 °F 1010.7 in WNW 24.1 mph 24.1 mph 74 % 0.0 in 0.0 W/m2 CLR
19:28 6.1 °F 1.8 °F 1010.7 in WNW 31.5 mph 31.5 mph 74 % 0.0 in 0.0 W/m2 CLR
19:33 6.1 °F 1.8 °F 1010.7 in WNW 24.1 mph 24.1 mph 74 % 0.0 in 0.0 W/m2 CLR
19:38 6.1 °F 1.8 °F 1010.7 in NW 25.7 mph 25.7 mph 74 % 0.0 in 0.0 W/m2 CLR
19:43 6.1 °F 2.0 °F 1010.7 in NW 31.5 mph 31.5 mph 75 % 0.0 in 0.0 W/m2 CLR
19:48 6.1 °F 2.2 °F 1010.7 in NW 31.5 mph 31.5 mph 76 % 0.0 in 0.0 W/m2 CLR
19:53 6.1 °F 2.2 °F 1011.1 in NW 35.2 mph 35.2 mph 76 % 0.0 in 0.0 W/m2 CLR
19:58 5.6 °F 1.7 °F 1010.7 in NW 31.5 mph 31.5 mph 76 % 0.0 in 0.0 W/m2 CLR
20:03 5.6 °F 1.8 °F 1010.7 in NW 27.8 mph 27.8 mph 77 % 0.0 in 0.0 W/m2 CLR
20:08 5.6 °F 1.8 °F 1011.1 in NW 31.5 mph 31.5 mph 77 % 0.0 in 0.0 W/m2 CLR
20:13 5.6 °F 1.7 °F 1010.7 in NW 31.5 mph 31.5 mph 76 % 0.0 in 0.0 W/m2 CLR
20:18 5.6 °F 1.7 °F 1010.7 in NNW 31.5 mph 31.5 mph 76 % 0.0 in 0.0 W/m2 CLR
20:23 5.6 °F 1.7 °F 1010.7 in NW 32.2 mph 32.2 mph 76 % 0.0 in 0.0 W/m2 CLR
20:28 5.0 °F 1.1 °F 1010.7 in NW 42.6 mph 42.6 mph 76 % 0.0 in 0.0 W/m2 CLR
20:33 5.0 °F 1.1 °F 1011.1 in NW 33.3 mph 33.3 mph 76 % 0.0 in 0.0 W/m2 CLR
20:38 5.0 °F 1.1 °F 1011.1 in NW 35.2 mph 35.2 mph 76 % 0.0 in 0.0 W/m2 CLR
20:43 5.0 °F 1.1 °F 1011.1 in NW 31.5 mph 31.5 mph 76 % 0.0 in 0.0 W/m2 CLR
20:48 5.0 °F 1.1 °F 1011.1 in NNW 27.8 mph 27.8 mph 76 % 0.0 in 0.0 W/m2 CLR
20:53 5.0 °F 1.1 °F 1011.4 in NNW 29.6 mph 29.6 mph 76 % 0.0 in 0.0 W/m2 CLR
20:58 5.0 °F 1.1 °F 1011.4 in NW 25.9 mph 25.9 mph 76 % 0.0 in 0.0 W/m2 CLR
21:03 5.0 °F 1.1 °F 1011.4 in NNW 31.5 mph 31.5 mph 76 % 0.0 in 0.0 W/m2 CLR
21:08 5.0 °F 1.1 °F 1011.4 in NNW 27.8 mph 27.8 mph 76 % 0.0 in 0.0 W/m2 CLR
21:13 5.0 °F 1.1 °F 1011.4 in NNW 25.9 mph 25.9 mph 76 % 0.0 in 0.0 W/m2 CLR
21:18 5.0 °F 1.1 °F 1011.4 in North 35.2 mph 35.2 mph 76 % 0.0 in 0.0 W/m2 CLR
21:23 5.0 °F 1.1 °F 1011.4 in NW 25.9 mph 25.9 mph 76 % 0.0 in 0.0 W/m2 CLR
21:28 5.0 °F 1.1 °F 1011.4 in NNW 25.9 mph 25.9 mph 76 % 0.0 in 0.0 W/m2 CLR
21:33 5.0 °F 1.1 °F 1011.7 in NW 18.5 mph 18.5 mph 76 % 0.0 in 0.0 W/m2 CLR
21:38 5.0 °F 1.1 °F 1011.7 in NW 29.6 mph 29.6 mph 76 % 0.0 in 0.0 W/m2 CLR
21:43 5.0 °F 1.1 °F 1011.7 in WNW 22.2 mph 22.2 mph 76 % 0.0 in 0.0 W/m2 CLR
21:48 5.0 °F 0.9 °F 1011.7 in NW 20.4 mph 20.4 mph 75 % 0.0 in 0.0 W/m2 CLR
21:53 5.0 °F 1.1 °F 1011.4 in NW 16.7 mph 16.7 mph 76 % 0.0 in 0.0 W/m2 CLR
21:58 5.0 °F 1.1 °F 1011.4 in NW 19.3 mph 19.3 mph 76 % 0.0 in 0.0 W/m2 CLR
22:03 4.4 °F 0.6 °F 1011.7 in North 25.9 mph 25.9 mph 76 % 0.0 in 0.0 W/m2 CLR
22:09 4.4 °F 0.6 °F 1011.7 in NNW 25.9 mph 25.9 mph 76 % 0.0 in 0.0 W/m2 CLR
22:14 4.4 °F 0.6 °F 1011.7 in NNW 18.5 mph 18.5 mph 76 % 0.0 in 0.0 W/m2 CLR
22:19 5.0 °F 1.1 °F 1011.7 in NW 20.4 mph 20.4 mph 76 % 0.0 in 0.0 W/m2 CLR
22:24 4.4 °F 0.6 °F 1011.7 in NW 9.7 mph 9.7 mph 76 % 0.0 in 0.0 W/m2 CLR
22:29 4.4 °F 0.6 °F 1011.7 in NW 25.9 mph 25.9 mph 76 % 0.0 in 0.0 W/m2 CLR
22:34 4.4 °F 0.6 °F 1011.7 in NW 27.8 mph 27.8 mph 76 % 0.0 in 0.0 W/m2 CLR
22:39 4.4 °F 0.6 °F 1011.4 in NW 22.2 mph 22.2 mph 76 % 0.0 in 0.0 W/m2 CLR
22:44 4.4 °F 0.6 °F 1011.4 in NNW 27.4 mph 27.4 mph 76 % 0.0 in 0.0 W/m2 CLR
22:49 4.4 °F 0.6 °F 1011.4 in NNW 25.9 mph 25.9 mph 76 % 0.0 in 0.0 W/m2 CLR
22:54 4.4 °F 0.6 °F 1011.7 in North 18.5 mph 18.5 mph 76 % 0.0 in 0.0 W/m2 CLR
22:59 4.4 °F 0.6 °F 1011.7 in NNE 18.5 mph 18.5 mph 76 % 0.0 in 0.0 W/m2 CLR
23:04 4.4 °F 0.6 °F 1011.7 in North 29.6 mph 29.6 mph 76 % 0.0 in 0.0 W/m2 CLR
23:09 4.4 °F 0.6 °F 1011.7 in NNW 20.9 mph 20.9 mph 76 % 0.0 in 0.0 W/m2 CLR
23:14 4.4 °F 0.6 °F 1011.7 in NW 18.5 mph 18.5 mph 76 % 0.0 in 0.0 W/m2 CLR
23:19 4.4 °F 0.8 °F 1011.7 in NW 14.8 mph 14.8 mph 77 % 0.0 in 0.0 W/m2 CLR
23:24 4.4 °F 0.8 °F 1011.7 in WNW 22.2 mph 22.2 mph 77 % 0.0 in 0.0 W/m2 CLR
23:29 4.4 °F 0.6 °F 1011.7 in NNW 16.7 mph 16.7 mph 76 % 0.0 in 0.0 W/m2 CLR
23:34 4.4 °F 0.6 °F 1011.7 in NNW 19.3 mph 19.3 mph 76 % 0.0 in 0.0 W/m2 CLR
23:39 4.4 °F 0.8 °F 1011.7 in NNW 22.2 mph 22.2 mph 77 % 0.0 in 0.0 W/m2 CLR
23:44 4.4 °F 0.8 °F 1011.7 in North 22.2 mph 22.2 mph 77 % 0.0 in 0.0 W/m2 CLR
23:49 4.4 °F 0.8 °F 1011.4 in NW 22.5 mph 22.5 mph 77 % 0.0 in 0.0 W/m2 CLR
23:54 4.4 °F 0.8 °F 1011.4 in NNW 25.9 mph 25.9 mph 77 % 0.0 in 0.0 W/m2 CLR
23:59 4.4 °F 0.8 °F 1011.4 in NNW 25.9 mph 25.9 mph 77 % 0.0 in 0.0 W/m2 CLR
Lo Temps de Massalio
Compliments of Weather Underground - 1.25 mb